Time;durP1;ratioP1;P1;durP2;ratioP2;P2;SDS_P1;SDS_P2;PMS_P1;PMS_P2;Temp;Humidity;BMP_temperature;BMP_pressure;BME280_temperature;BME280_humidity;BME280_pressure;Samples;Min_cycle;Max_cycle;Signal;HPM_P1;HPM_P2
2021/07/10 00:01:50;;;;;;;9.13;8.02;;;;;;;17.19;73.74;97673.19;5081092;28;20663;-78
2021/07/10 00:04:15;;;;;;;9.50;7.93;;;;;;;17.16;74.05;97672.94;5107212;28;20573;-78
2021/07/10 00:06:40;;;;;;;8.65;7.80;;;;;;;17.14;74.04;97680.34;5103472;28;20028;-78
2021/07/10 00:09:06;;;;;;;8.95;8.05;;;;;;;17.05;74.02;97674.88;5088251;28;20055;-78
2021/07/10 00:11:31;;;;;;;9.25;8.20;;;;;;;17.03;74.14;97666.44;5055101;28;20031;-78
2021/07/10 00:13:56;;;;;;;10.07;8.35;;;;;;;16.92;74.31;97649.97;5083797;28;20066;-78
2021/07/10 00:16:22;;;;;;;9.27;8.25;;;;;;;16.85;73.88;97657.38;5109908;28;20478;-79
2021/07/10 00:18:47;;;;;;;12.18;7.97;;;;;;;16.90;74.17;97669.72;5108511;28;20382;-78
2021/07/10 00:21:13;;;;;;;11.20;8.02;;;;;;;16.89;74.15;97662.88;5077254;28;20028;-78
2021/07/10 00:23:38;;;;;;;8.02;7.18;;;;;;;16.78;74.02;97654.25;5107794;28;20024;-78
2021/07/10 00:26:06;;;;;;;8.02;6.93;;;;;;;16.70;74.09;97660.06;5058039;28;20124;-78
2021/07/10 00:28:31;;;;;;;7.43;6.72;;;;;;;16.65;73.89;97674.78;5060126;28;20020;-78
2021/07/10 00:30:56;;;;;;;7.68;6.57;;;;;;;16.55;74.05;97671.44;5058101;28;20570;-78
2021/07/10 00:33:22;;;;;;;9.90;7.80;;;;;;;16.46;74.43;97671.22;5073355;28;20027;-78
2021/07/10 00:35:47;;;;;;;9.77;6.70;;;;;;;16.44;74.55;97674.13;5104847;28;20036;-78
2021/07/10 00:38:12;;;;;;;13.98;6.80;;;;;;;16.42;74.52;97665.72;5072049;28;20020;-78
2021/07/10 00:40:38;;;;;;;8.35;6.90;;;;;;;16.41;75.05;97668.63;5081680;28;20036;-78
2021/07/10 00:43:03;;;;;;;6.72;6.10;;;;;;;16.40;74.64;97652.06;5097613;28;20572;-78
2021/07/10 00:45:29;;;;;;;6.30;5.78;;;;;;;16.45;74.15;97656.50;5093486;28;20059;-78
2021/07/10 00:47:54;;;;;;;5.88;5.38;;;;;;;16.46;74.00;97655.44;5084380;28;20110;-78
2021/07/10 00:50:26;;;;;;;8.10;7.30;;;;;;;16.17;74.30;97650.06;5082515;28;20036;-78
2021/07/10 00:52:51;;;;;;;7.75;6.95;;;;;;;16.32;74.55;97657.88;5102976;28;20032;-78
2021/07/10 00:55:18;;;;;;;7.78;7.07;;;;;;;16.25;74.30;97650.28;5094678;28;20493;-78
2021/07/10 00:57:44;;;;;;;10.63;7.93;;;;;;;16.21;74.30;97656.34;5091249;28;20032;-78
2021/07/10 01:00:12;;;;;;;8.75;7.85;;;;;;;16.13;74.63;97649.03;5093620;28;20046;-79
2021/07/10 01:02:40;;;;;;;8.80;7.90;;;;;;;16.05;74.61;97634.59;5066781;28;20045;-78
2021/07/10 01:05:09;;;;;;;10.50;8.95;;;;;;;16.12;74.69;97645.59;5058850;22;20048;-76
2021/07/10 01:07:34;;;;;;;10.52;9.40;;;;;;;16.16;74.88;97636.16;5026029;28;20430;-76
2021/07/10 01:10:02;;;;;;;10.60;9.18;;;;;;;16.13;75.28;97635.91;5046482;28;20044;-76
2021/07/10 01:12:29;;;;;;;10.05;8.98;;;;;;;16.12;74.88;97635.09;5029432;28;20037;-76
2021/07/10 01:14:54;;;;;;;10.00;9.00;;;;;;;16.09;74.79;97631.19;5028867;28;20483;-76
2021/07/10 01:17:19;;;;;;;9.55;8.57;;;;;;;16.06;74.89;97636.97;5048412;28;20048;-75
2021/07/10 01:19:59;;;;;;;9.35;8.35;;;;;;;15.88;75.30;97633.06;5050796;28;20060;-75
2021/07/10 01:22:24;;;;;;;8.95;8.15;;;;;;;16.04;74.66;97622.50;5050286;28;20032;-76
2021/07/10 01:24:50;;;;;;;8.98;8.13;;;;;;;16.03;74.54;97626.22;5046247;28;20486;-75
2021/07/10 01:27:16;;;;;;;8.60;7.70;;;;;;;16.02;74.61;97627.25;5021942;28;20029;-75
2021/07/10 01:29:42;;;;;;;8.88;7.97;;;;;;;15.97;74.68;97622.00;5045989;28;20104;-75
2021/07/10 01:32:08;;;;;;;8.90;7.93;;;;;;;15.96;74.67;97607.31;5013083;28;20580;-76
2021/07/10 01:34:34;;;;;;;9.48;8.57;;;;;;;15.98;74.24;97611.25;5016209;28;20120;-76
2021/07/10 01:36:59;;;;;;;8.90;8.00;;;;;;;16.01;74.46;97605.47;5051540;28;20399;-76
2021/07/10 01:39:25;;;;;;;7.75;6.95;;;;;;;16.01;74.22;97607.31;5033459;28;20033;-76
2021/07/10 01:41:53;;;;;;;11.85;8.48;;;;;;;16.01;73.98;97596.81;5034140;28;20025;-76
2021/07/10 01:44:20;;;;;;;9.95;8.23;;;;;;;15.97;74.09;97598.38;5033397;28;20044;-76
2021/07/10 01:46:45;;;;;;;8.55;7.75;;;;;;;15.91;73.91;97592.38;5030344;28;20115;-76
2021/07/10 01:49:10;;;;;;;8.95;8.05;;;;;;;15.87;74.22;97591.34;5033226;28;20112;-76
2021/07/10 01:51:36;;;;;;;8.57;7.47;;;;;;;15.83;74.35;97591.06;5016132;28;20049;-76
2021/07/10 01:54:02;;;;;;;8.90;7.95;;;;;;;15.85;74.26;97607.34;5033201;28;20155;-76
2021/07/10 01:56:27;;;;;;;8.85;7.78;;;;;;;15.81;74.50;97608.94;5049820;28;20029;-76
2021/07/10 01:58:54;;;;;;;11.90;7.82;;;;;;;15.78;74.12;97609.50;5050237;28;20102;-76
2021/07/10 02:01:19;;;;;;;7.25;6.55;;;;;;;15.76;74.27;97605.53;5032398;28;20055;-76
2021/07/10 02:03:45;;;;;;;7.22;6.53;;;;;;;15.74;73.95;97595.28;5031057;28;20037;-76
2021/07/10 02:06:10;;;;;;;6.75;6.05;;;;;;;15.72;73.92;97597.38;5043571;28;20032;-76
2021/07/10 02:08:37;;;;;;;6.72;6.00;;;;;;;15.65;74.21;97589.78;5041239;28;20071;-76
2021/07/10 02:11:03;;;;;;;6.65;5.93;;;;;;;15.68;73.73;97598.97;5050325;28;20060;-76
2021/07/10 02:13:28;;;;;;;6.65;6.03;;;;;;;15.64;73.64;97587.44;5033779;28;20063;-76
2021/07/10 02:15:53;;;;;;;6.60;6.00;;;;;;;15.57;73.97;97590.31;5049727;28;20028;-76
2021/07/10 02:18:19;;;;;;;7.82;6.18;;;;;;;15.48;73.66;97579.59;5050923;28;20040;-76
2021/07/10 02:20:45;;;;;;;6.68;5.78;;;;;;;15.53;74.14;97586.66;5049779;28;20039;-76
2021/07/10 02:23:10;;;;;;;7.63;6.82;;;;;;;15.48;74.08;97573.56;5043447;28;20041;-76
2021/07/10 02:25:36;;;;;;;8.02;6.68;;;;;;;15.44;73.85;97572.50;5050991;28;20048;-76
2021/07/10 02:28:01;;;;;;;7.70;6.90;;;;;;;15.47;74.01;97571.97;5051056;28;20021;-76
2021/07/10 02:30:29;;;;;;;8.02;7.22;;;;;;;15.41;73.69;97565.97;5049866;28;20043;-76
2021/07/10 02:32:56;;;;;;;8.40;7.60;;;;;;;15.36;74.63;97560.72;5049745;28;20041;-77
2021/07/10 02:35:21;;;;;;;8.45;7.28;;;;;;;15.39;74.52;97565.44;5046935;28;20071;-76
2021/07/10 02:37:48;;;;;;;8.52;7.25;;;;;;;15.31;74.43;97555.50;5050622;28;20060;-76
2021/07/10 02:40:15;;;;;;;9.27;8.20;;;;;;;15.31;73.98;97552.88;5049655;28;20037;-76
2021/07/10 02:42:40;;;;;;;7.78;6.97;;;;;;;15.27;74.74;97549.22;5049581;28;20407;-76
2021/07/10 02:45:10;;;;;;;9.13;7.47;;;;;;;15.24;74.54;97554.97;5046250;28;20048;-76
2021/07/10 02:47:36;;;;;;;8.35;7.15;;;;;;;15.19;74.96;97549.75;5049636;28;20029;-76
2021/07/10 02:50:06;;;;;;;8.77;6.28;;;;;;;15.16;74.91;97556.28;5049427;28;20072;-76
2021/07/10 02:52:31;;;;;;;6.93;6.25;;;;;;;15.19;74.75;97555.00;5049637;28;20036;-76
2021/07/10 02:54:57;;;;;;;8.20;6.47;;;;;;;15.18;74.60;97554.19;5045316;28;20029;-76
2021/07/10 02:57:23;;;;;;;7.97;6.57;;;;;;;15.17;74.55;97558.66;5048806;28;20108;-76
2021/07/10 02:59:48;;;;;;;6.13;5.53;;;;;;;15.21;74.35;97558.91;5056145;28;20057;-76
2021/07/10 03:02:14;;;;;;;6.78;6.07;;;;;;;15.24;74.30;97552.34;5044965;28;20718;-76
2021/07/10 03:04:41;;;;;;;6.53;5.93;;;;;;;15.19;74.24;97549.75;5039853;28;20068;-76
2021/07/10 03:07:07;;;;;;;6.90;6.15;;;;;;;15.13;74.52;97546.31;5050527;28;20515;-76
2021/07/10 03:09:32;;;;;;;6.93;6.15;;;;;;;15.10;74.84;97547.66;5016802;28;20036;-76
2021/07/10 03:11:57;;;;;;;7.93;6.35;;;;;;;15.10;74.84;97546.88;5043161;28;20025;-76
2021/07/10 03:14:23;;;;;;;7.10;6.38;;;;;;;15.04;75.53;97538.19;5058549;28;20036;-76
2021/07/10 03:16:48;;;;;;;7.38;6.65;;;;;;;15.09;74.46;97537.41;5049358;28;20029;-76
2021/07/10 03:19:13;;;;;;;8.70;6.53;;;;;;;15.00;74.33;97531.91;5029416;28;20045;-76
2021/07/10 03:21:39;;;;;;;8.25;7.43;;;;;;;14.93;74.60;97534.03;5049153;28;20037;-76
2021/07/10 03:24:04;;;;;;;7.50;6.63;;;;;;;14.92;74.75;97540.31;5048873;28;20372;-76
2021/07/10 03:26:30;;;;;;;7.47;6.75;;;;;;;14.90;74.70;97526.69;5049448;28;20036;-76
2021/07/10 03:28:55;;;;;;;8.15;7.35;;;;;;;14.88;74.78;97526.16;5045056;28;20036;-76
2021/07/10 03:31:21;;;;;;;8.60;7.68;;;;;;;14.90;74.84;97526.69;5047235;28;20029;-76
2021/07/10 03:33:46;;;;;;;9.07;8.18;;;;;;;14.91;74.70;97533.50;5028682;28;20547;-76
2021/07/10 03:36:12;;;;;;;8.57;7.85;;;;;;;14.87;74.86;97527.97;5063292;28;20033;-77
2021/07/10 03:38:40;;;;;;;8.85;7.80;;;;;;;14.91;74.61;97529.03;5048887;28;20040;-76
2021/07/10 03:41:05;;;;;;;8.15;7.15;;;;;;;14.90;74.94;97526.69;5032575;28;20028;-76
2021/07/10 03:43:31;;;;;;;9.80;7.97;;;;;;;14.94;75.10;97532.97;5032493;28;20047;-76
2021/07/10 03:45:58;;;;;;;10.57;8.77;;;;;;;14.95;75.20;97531.94;5029341;28;20119;-76
2021/07/10 03:48:24;;;;;;;9.48;8.10;;;;;;;15.01;74.91;97532.69;5038405;28;20029;-76
2021/07/10 03:50:49;;;;;;;9.52;8.63;;;;;;;15.03;75.02;97518.28;5048705;28;20170;-76
2021/07/10 03:53:15;;;;;;;11.05;8.88;;;;;;;15.11;74.67;97527.44;5049735;28;20029;-76
2021/07/10 03:55:40;;;;;;;9.05;8.07;;;;;;;15.05;74.62;97529.28;5048747;28;20050;-76
2021/07/10 03:58:06;;;;;;;9.23;7.88;;;;;;;15.08;74.51;97526.16;5014170;28;20044;-76
2021/07/10 04:00:31;;;;;;;12.20;8.70;;;;;;;15.11;74.83;97524.81;5048885;28;20036;-76
2021/07/10 04:02:57;;;;;;;9.90;8.90;;;;;;;15.13;74.96;97523.53;5047559;28;20036;-76
2021/07/10 04:05:22;;;;;;;9.52;8.52;;;;;;;15.19;74.65;97534.78;5036348;28;20655;-76
2021/07/10 04:07:48;;;;;;;9.60;8.43;;;;;;;15.23;74.64;97529.78;5049749;28;20044;-76
2021/07/10 04:10:14;;;;;;;10.45;9.05;;;;;;;15.22;74.56;97530.84;5052313;28;20112;-76
2021/07/10 04:12:40;;;;;;;11.00;9.13;;;;;;;15.29;75.31;97533.97;5053897;28;20087;-76
2021/07/10 04:15:07;;;;;;;10.88;9.25;;;;;;;15.31;75.00;97531.88;5052267;28;20025;-76
2021/07/10 04:17:32;;;;;;;9.85;8.65;;;;;;;15.32;75.08;97536.09;5029522;28;20026;-76
2021/07/10 04:19:59;;;;;;;11.00;9.43;;;;;;;15.31;75.22;97530.03;5035675;28;20064;-76
2021/07/10 04:22:24;;;;;;;9.50;8.50;;;;;;;15.37;75.03;97530.81;5052589;28;20029;-76
2021/07/10 04:24:51;;;;;;;9.73;8.73;;;;;;;15.41;75.18;97537.09;5046640;28;20037;-77
2021/07/10 04:27:16;;;;;;;9.27;8.38;;;;;;;15.44;74.78;97523.44;5069000;28;20028;-76
2021/07/10 04:29:44;;;;;;;9.77;8.77;;;;;;;15.50;74.93;97525.00;5035049;28;20406;-76
2021/07/10 04:32:11;;;;;;;9.80;8.65;;;;;;;15.54;74.64;97517.38;5049099;28;20035;-76
2021/07/10 04:34:36;;;;;;;10.82;9.10;;;;;;;15.67;74.69;97521.28;5049998;28;20083;-76
2021/07/10 04:37:02;;;;;;;11.18;9.13;;;;;;;15.73;74.80;97517.59;5049479;28;20064;-76
2021/07/10 04:39:27;;;;;;;9.43;8.40;;;;;;;15.76;75.15;97519.69;5052447;28;20025;-76
2021/07/10 04:41:53;;;;;;;10.88;8.98;;;;;;;15.82;74.78;97518.63;5044916;28;20479;-76
2021/07/10 04:44:18;;;;;;;10.23;8.98;;;;;;;15.94;74.80;97525.38;5028728;28;20441;-76
2021/07/10 04:46:43;;;;;;;9.50;8.20;;;;;;;16.03;74.45;97513.25;5051894;28;20029;-76
2021/07/10 04:49:10;;;;;;;8.98;8.10;;;;;;;16.15;74.58;97508.47;5053295;28;20039;-76
2021/07/10 04:51:35;;;;;;;9.27;8.38;;;;;;;16.29;73.97;97514.66;5051874;28;20399;-76
2021/07/10 04:54:01;;;;;;;9.70;8.70;;;;;;;16.35;73.99;97510.19;5051490;28;20029;-76
2021/07/10 04:56:26;;;;;;;9.57;8.60;;;;;;;16.41;74.20;97505.66;5051421;28;20025;-76
2021/07/10 04:58:51;;;;;;;9.52;8.30;;;;;;;16.47;73.78;97509.84;5052225;28;20036;-76
2021/07/10 05:01:17;;;;;;;10.38;8.23;;;;;;;16.54;73.67;97520.81;5050786;28;20047;-76
2021/07/10 05:03:42;;;;;;;8.75;7.85;;;;;;;16.57;73.48;97515.03;5044659;28;20502;-76
2021/07/10 05:06:09;;;;;;;8.75;7.70;;;;;;;16.63;73.40;97524.44;5044830;28;20563;-76
2021/07/10 05:08:35;;;;;;;8.48;7.53;;;;;;;16.70;73.62;97525.97;5048599;28;20029;-76
2021/07/10 05:11:00;;;;;;;9.60;8.30;;;;;;;16.75;73.64;97524.06;5050550;28;20040;-76
2021/07/10 05:13:25;;;;;;;8.60;7.80;;;;;;;16.82;73.53;97516.66;5029834;28;20124;-76
2021/07/10 05:15:51;;;;;;;8.23;7.45;;;;;;;16.85;73.63;97515.34;5020011;28;20474;-76
2021/07/10 05:18:16;;;;;;;8.02;7.28;;;;;;;16.90;73.63;97519.78;5049836;28;20033;-76
2021/07/10 05:20:41;;;;;;;9.40;7.88;;;;;;;16.98;73.77;97516.53;5049867;28;20095;-76
2021/07/10 05:23:07;;;;;;;9.48;8.50;;;;;;;17.04;73.48;97520.72;5033425;28;20448;-76
2021/07/10 05:25:32;;;;;;;9.45;8.25;;;;;;;17.08;73.32;97518.31;5050056;28;20032;-76
2021/07/10 05:27:58;;;;;;;9.43;8.02;;;;;;;17.13;73.12;97515.63;5033637;28;20021;-76
2021/07/10 05:30:23;;;;;;;9.95;7.82;;;;;;;17.20;73.17;97516.06;5043084;28;20124;-76
2021/07/10 05:32:48;;;;;;;8.23;7.45;;;;;;;17.29;72.85;97522.31;5046855;28;20068;-76
2021/07/10 05:35:18;;;;;;;8.20;7.40;;;;;;;17.40;72.87;97525.63;5038167;28;20041;-76
2021/07/10 05:37:43;;;;;;;8.13;7.43;;;;;;;17.47;72.71;97520.78;5004243;28;20029;-76
2021/07/10 05:40:09;;;;;;;8.20;7.40;;;;;;;17.55;72.54;97529.94;5050535;28;20102;-76
2021/07/10 05:42:34;;;;;;;9.25;8.35;;;;;;;17.62;72.23;97527.75;5050848;28;20025;-76
2021/07/10 05:45:00;;;;;;;9.18;7.70;;;;;;;17.67;72.56;97524.28;5061024;28;20040;-76
2021/07/10 05:47:25;;;;;;;8.55;7.10;;;;;;;17.73;72.56;97525.78;5051997;28;20025;-76
2021/07/10 05:49:51;;;;;;;8.13;7.32;;;;;;;17.79;72.38;97525.44;5050285;28;20410;-75
2021/07/10 05:52:16;;;;;;;8.10;7.30;;;;;;;17.87;72.10;97521.44;5045976;28;20029;-76
2021/07/10 05:54:41;;;;;;;10.15;8.50;;;;;;;18.02;71.88;97520.44;5045511;28;20064;-76
2021/07/10 05:57:07;;;;;;;8.95;8.15;;;;;;;18.13;72.36;97519.22;5050338;28;20033;-75
2021/07/10 05:59:32;;;;;;;9.40;8.27;;;;;;;18.25;72.51;97524.09;5043945;28;20029;-76
2021/07/10 06:02:06;;;;;;;9.80;8.48;;;;;;;18.38;72.07;97517.28;5048560;28;20472;-76
2021/07/10 06:04:31;;;;;;;9.27;8.25;;;;;;;18.53;71.80;97524.97;5046225;28;20564;-75
2021/07/10 06:06:56;;;;;;;9.43;7.63;;;;;;;18.67;71.43;97519.75;5028667;28;20040;-75
2021/07/10 06:09:22;;;;;;;9.32;8.18;;;;;;;18.86;71.56;97527.66;5049397;28;20067;-75
2021/07/10 06:11:47;;;;;;;8.32;7.45;;;;;;;19.01;71.43;97520.56;5048682;28;20037;-75
2021/07/10 06:14:12;;;;;;;8.15;7.45;;;;;;;19.22;71.36;97524.38;5031624;28;20396;-75
2021/07/10 06:16:38;;;;;;;8.43;7.63;;;;;;;19.40;70.80;97524.63;5048363;28;20033;-75
2021/07/10 06:19:04;;;;;;;9.00;8.20;;;;;;;19.59;70.50;97521.88;5046639;28;20043;-74
2021/07/10 06:21:31;;;;;;;9.35;8.10;;;;;;;19.77;69.76;97517.56;5023514;28;20040;-75
2021/07/10 06:23:57;;;;;;;7.95;7.25;;;;;;;19.87;69.42;97514.72;5044279;28;20035;-75
2021/07/10 06:26:22;;;;;;;8.48;7.68;;;;;;;20.01;68.99;97514.69;5040121;28;20039;-75
2021/07/10 06:28:50;;;;;;;9.38;7.40;;;;;;;20.15;68.49;97517.31;5048284;28;20031;-75
2021/07/10 06:31:17;;;;;;;7.32;6.65;;;;;;;20.32;67.94;97508.75;5030621;28;20410;-75
2021/07/10 06:33:42;;;;;;;7.47;6.78;;;;;;;20.58;67.02;97520.31;5011335;28;20091;-75
2021/07/10 06:36:07;;;;;;;8.00;7.30;;;;;;;20.83;66.55;97520.78;5045674;28;20504;-75
2021/07/10 06:38:33;;;;;;;7.63;6.93;;;;;;;21.05;65.44;97517.31;5045811;28;20383;-76
2021/07/10 06:40:58;;;;;;;5.75;5.22;;;;;;;21.29;63.87;97521.50;5047912;28;20386;-75
2021/07/10 06:43:24;;;;;;;6.60;5.95;;;;;;;21.51;63.32;97518.03;5047595;28;20505;-75
2021/07/10 06:45:49;;;;;;;5.82;5.32;;;;;;;21.78;62.10;97522.31;5047777;28;20275;-76
2021/07/10 06:48:14;;;;;;;6.20;5.70;;;;;;;21.92;61.86;97527.47;5047301;28;20140;-76
2021/07/10 06:50:40;;;;;;;5.55;5.15;;;;;;;22.08;61.58;97520.59;5047620;28;20083;-76
2021/07/10 06:53:05;;;;;;;6.07;5.47;;;;;;;22.29;60.11;97524.56;5030723;28;20027;-75
2021/07/10 06:55:30;;;;;;;6.05;5.45;;;;;;;22.46;58.89;97529.84;5036947;28;20064;-75
2021/07/10 06:57:56;;;;;;;5.18;4.78;;;;;;;22.62;57.50;97530.94;5050785;28;20094;-75
2021/07/10 07:00:23;;;;;;;5.28;4.78;;;;;;;22.71;56.61;97524.84;5065765;28;20028;-76
2021/07/10 07:02:48;;;;;;;4.43;4.03;;;;;;;22.86;55.74;97526.22;5048076;28;20414;-75
2021/07/10 07:05:14;;;;;;;4.95;4.53;;;;;;;22.92;54.31;97519.66;5043277;28;20629;-75
2021/07/10 07:07:39;;;;;;;5.13;4.35;;;;;;;22.99;53.92;97520.69;5043486;28;20021;-75
2021/07/10 07:10:07;;;;;;;6.07;4.75;;;;;;;23.08;54.17;97518.06;5049180;28;20032;-75
2021/07/10 07:12:32;;;;;;;5.20;4.70;;;;;;;23.18;55.18;97514.28;5048997;28;20682;-75
2021/07/10 07:14:58;;;;;;;5.13;4.72;;;;;;;23.32;55.08;97509.53;5041240;28;20041;-75
2021/07/10 07:17:24;;;;;;;5.43;4.63;;;;;;;23.47;53.74;97507.44;5048985;28;20029;-75
2021/07/10 07:19:49;;;;;;;4.90;4.50;;;;;;;23.61;52.58;97505.31;5032618;28;20072;-75
2021/07/10 07:22:15;;;;;;;5.30;4.85;;;;;;;23.70;52.02;97500.75;5048958;28;20032;-75
2021/07/10 07:24:40;;;;;;;4.30;4.00;;;;;;;23.75;51.87;97497.09;5042204;28;20134;-75
2021/07/10 07:27:06;;;;;;;4.90;4.50;;;;;;;23.84;52.29;97494.44;5043692;28;20037;-75
2021/07/10 07:29:31;;;;;;;4.70;4.40;;;;;;;23.90;51.91;97493.13;5050871;28;20029;-75
2021/07/10 07:31:57;;;;;;;5.30;4.80;;;;;;;23.90;52.91;97496.56;5048952;28;20121;-75
2021/07/10 07:34:22;;;;;;;5.20;4.80;;;;;;;24.02;52.06;97487.09;5047404;28;20037;-75
2021/07/10 07:36:48;;;;;;;5.65;4.50;;;;;;;24.28;51.52;97489.53;5040063;28;20044;-75
2021/07/10 07:39:16;;;;;;;5.28;4.82;;;;;;;24.38;53.13;97481.16;5038732;28;20037;-75
2021/07/10 07:41:42;;;;;;;4.13;3.83;;;;;;;24.80;50.83;97475.00;5051665;28;20371;-75
2021/07/10 07:44:07;;;;;;;4.47;4.15;;;;;;;24.95;51.63;97476.22;5048042;28;20032;-75
2021/07/10 07:46:33;;;;;;;4.20;3.80;;;;;;;25.03;49.77;97478.03;5038253;28;20116;-75
2021/07/10 07:48:59;;;;;;;3.60;3.40;;;;;;;25.16;47.52;97470.81;5013516;28;20029;-75
2021/07/10 07:51:27;;;;;;;3.75;3.50;;;;;;;25.35;48.45;97467.63;5042386;28;20052;-75
2021/07/10 07:53:52;;;;;;;4.00;3.67;;;;;;;25.36;49.66;97469.16;5039779;28;20052;-75
2021/07/10 07:56:17;;;;;;;4.00;3.70;;;;;;;25.69;48.30;97470.94;5046867;28;20033;-75
2021/07/10 07:58:44;;;;;;;4.32;3.55;;;;;;;25.55;48.74;97464.06;5029929;28;20418;-75
2021/07/10 08:01:10;;;;;;;3.95;3.55;;;;;;;25.67;48.54;97468.59;5043118;28;20029;-75
2021/07/10 08:03:42;;;;;;;4.82;3.80;;;;;;;25.63;49.11;97467.69;5029173;28;20068;-75
2021/07/10 08:06:07;;;;;;;3.92;3.70;;;;;;;25.84;47.63;97467.56;5047496;28;20650;-75
2021/07/10 08:08:39;;;;;;;3.90;3.60;;;;;;;25.55;49.29;97460.59;5046800;28;20068;-75
2021/07/10 08:11:06;;;;;;;4.20;3.90;;;;;;;25.55;49.24;97463.25;5045431;28;20028;-75
2021/07/10 08:13:33;;;;;;;3.75;3.53;;;;;;;25.69;47.57;97461.03;5041070;28;20037;-75
2021/07/10 08:15:58;;;;;;;4.28;3.90;;;;;;;25.82;49.15;97467.09;5046666;28;20033;-75
2021/07/10 08:18:24;;;;;;;4.32;3.92;;;;;;;25.73;47.87;97455.81;5046633;28;20090;-75
2021/07/10 08:20:49;;;;;;;11.65;4.32;;;;;;;25.58;47.55;97450.06;5044548;28;20698;-75
2021/07/10 08:23:15;;;;;;;3.78;3.47;;;;;;;25.70;47.43;97451.91;5029888;28;20438;-75
2021/07/10 08:25:42;;;;;;;4.00;3.60;;;;;;;25.56;47.06;97454.94;5039346;28;20158;-74
2021/07/10 08:28:07;;;;;;;4.10;3.80;;;;;;;25.26;48.52;97448.31;5041744;28;20043;-75
2021/07/10 08:30:36;;;;;;;10.07;6.40;;;;;;;25.13;49.17;97452.84;5046609;28;20033;-75
2021/07/10 08:33:03;;;;;;;4.15;3.72;;;;;;;25.12;49.34;97454.72;5046299;28;20379;-75
2021/07/10 08:35:30;;;;;;;4.85;4.35;;;;;;;25.10;49.81;97442.84;5045142;28;20059;-75
2021/07/10 08:37:56;;;;;;;5.78;4.35;;;;;;;25.26;49.91;97442.97;5046746;28;20028;-75
2021/07/10 08:40:23;;;;;;;4.22;3.40;;;;;;;25.49;49.68;97436.06;5047908;28;20060;-75
2021/07/10 08:42:50;;;;;;;3.40;3.10;;;;;;;25.72;45.80;97436.38;5046619;28;20041;-75
2021/07/10 08:45:20;;;;;;;3.85;3.55;;;;;;;25.88;49.02;97436.44;5046293;28;20025;-75
2021/07/10 08:47:46;;;;;;;5.80;3.75;;;;;;;26.12;48.88;97434.81;5039187;28;20071;-75
2021/07/10 08:50:16;;;;;;;3.67;3.38;;;;;;;26.14;45.37;97440.59;5045658;28;20037;-75
2021/07/10 08:52:42;;;;;;;3.67;3.42;;;;;;;25.95;45.91;97433.97;5029570;28;20025;-75
2021/07/10 08:55:12;;;;;;;5.00;3.65;;;;;;;25.63;46.55;97438.38;5047565;28;20028;-75
2021/07/10 08:57:39;;;;;;;4.00;3.70;;;;;;;25.35;47.02;97435.66;5050068;28;20028;-75
2021/07/10 09:00:20;;;;;;;3.50;3.15;;;;;;;25.15;46.46;97435.38;5049725;28;20028;-75
2021/07/10 09:02:49;;;;;;;4.18;3.78;;;;;;;25.44;48.52;97444.28;5050025;28;20082;-75
2021/07/10 09:05:15;;;;;;;3.70;3.40;;;;;;;25.57;46.32;97437.06;5042141;28;20033;-75
2021/07/10 09:08:22;;;;;;;3.10;2.80;;;;;;;25.59;46.04;97435.59;5050164;28;20029;-75
2021/07/10 09:11:07;;;;;;;3.30;3.10;;;;;;;25.86;46.22;97438.66;5033478;28;20036;-75
2021/07/10 09:13:38;;;;;;;3.47;3.28;;;;;;;25.94;45.48;97435.13;5049662;28;20545;-75
2021/07/10 09:16:06;;;;;;;3.30;3.10;;;;;;;26.17;44.89;97445.25;5029671;28;20029;-75
2021/07/10 09:18:43;;;;;;;4.13;3.67;;;;;;;26.13;44.09;97444.38;5044091;28;20083;-75
2021/07/10 09:21:11;;;;;;;3.42;3.22;;;;;;;26.38;44.76;97442.38;5050963;28;20033;-75
2021/07/10 09:23:41;;;;;;;3.72;3.42;;;;;;;26.53;44.33;97436.28;5049170;28;20076;-75
2021/07/10 09:26:13;;;;;;;3.67;3.28;;;;;;;26.77;43.57;97423.91;5033005;28;20033;-75
2021/07/10 09:28:40;;;;;;;3.80;3.50;;;;;;;26.95;42.67;97432.34;5032847;28;20492;-75
2021/07/10 09:31:15;;;;;;;3.53;3.22;;;;;;;26.78;41.66;97420.13;5042594;28;20033;-75
2021/07/10 09:33:41;;;;;;;;;;;;;;;26.74;43.07;97423.84;5049485;28;20037;-75
2021/07/10 09:36:11;;;;;;;3.80;3.50;;;;;;;27.08;41.75;97417.00;5048154;28;19951;-75
2021/07/10 09:38:38;;;;;;;3.60;3.10;;;;;;;27.09;41.52;97403.31;5047451;28;20059;-75
2021/07/10 09:41:10;;;;;;;4.05;3.65;;;;;;;27.09;43.48;97400.63;5048982;28;20496;-75
2021/07/10 09:43:38;;;;;;;3.40;3.10;;;;;;;27.30;44.01;97401.47;5032380;28;20166;-75
2021/07/10 09:46:06;;;;;;;4.15;3.08;;;;;;;27.36;43.08;97408.88;5048883;28;20053;-75
2021/07/10 09:48:36;;;;;;;3.13;2.92;;;;;;;27.63;39.73;97393.00;5049037;28;20062;-75
2021/07/10 09:51:19;;;;;;;2.80;2.60;;;;;;;27.69;41.07;97404.97;5039751;28;20384;-75
2021/07/10 09:53:58;;;;;;;2.70;2.50;;;;;;;27.83;42.00;97405.25;5038321;28;20082;-75
2021/07/10 09:56:26;;;;;;;2.90;2.67;;;;;;;27.69;41.63;97391.59;5044966;28;20040;-75
2021/07/10 09:58:52;;;;;;;3.42;3.22;;;;;;;27.54;42.94;97392.41;5048641;28;20037;-75
2021/07/10 10:01:35;;;;;;;3.55;3.00;;;;;;;27.31;40.76;97389.66;5048953;28;20037;-75
2021/07/10 10:04:28;;;;;;;3.30;2.95;;;;;;;27.45;41.55;97387.28;5047422;28;20060;-75
2021/07/10 10:06:57;;;;;;;3.08;2.88;;;;;;;27.64;42.78;97383.84;5055265;28;20037;-75
2021/07/10 10:09:25;;;;;;;3.65;3.35;;;;;;;27.78;42.02;97381.47;5041776;28;20037;-75
2021/07/10 10:12:11;;;;;;;3.00;2.70;;;;;;;27.62;41.03;97383.41;5044463;28;20033;-76
2021/07/10 10:14:47;;;;;;;3.00;2.80;;;;;;;27.24;40.95;97382.22;5031525;28;20025;-75
2021/07/10 10:17:16;;;;;;;3.58;3.28;;;;;;;27.25;41.47;97375.75;5048509;28;20033;-75
2021/07/10 10:19:43;;;;;;;3.20;3.00;;;;;;;27.20;42.36;97382.16;5041535;28;20025;-75
2021/07/10 10:22:11;;;;;;;3.88;3.08;;;;;;;27.14;45.82;97372.84;5048087;28;20028;-75
2021/07/10 10:24:41;;;;;;;3.08;2.88;;;;;;;27.00;44.05;97369.84;5047863;28;20388;-75
2021/07/10 10:27:08;;;;;;;2.88;2.63;;;;;;;27.34;44.53;97368.34;5031708;28;20269;-75
2021/07/10 10:29:38;;;;;;;6.82;3.90;;;;;;;27.88;43.88;97357.94;5028251;28;20123;-75
2021/07/10 10:32:06;;;;;;;3.13;2.67;;;;;;;28.31;41.26;97358.72;5041188;28;20033;-75
2021/07/10 10:34:39;;;;;;;3.88;3.58;;;;;;;28.27;41.37;97361.34;5029831;28;20059;-75
2021/07/10 10:37:07;;;;;;;2.85;2.65;;;;;;;28.04;40.81;97365.91;5048407;28;20488;-75
2021/07/10 10:39:35;;;;;;;3.58;3.30;;;;;;;27.62;42.28;97362.81;5048127;28;20033;-75
2021/07/10 10:42:09;;;;;;;2.80;2.60;;;;;;;27.23;43.26;97361.94;5048117;28;20390;-74
2021/07/10 10:44:41;;;;;;;3.42;3.13;;;;;;;26.77;42.77;97359.81;5042514;28;20535;-74
2021/07/10 10:47:11;;;;;;;3.13;2.83;;;;;;;26.66;43.47;97361.44;5036837;28;20115;-74
2021/07/10 10:49:42;;;;;;;3.58;3.05;;;;;;;26.41;45.04;97358.13;5047976;28;20033;-75
2021/07/10 10:52:29;;;;;;;3.33;3.13;;;;;;;26.82;46.05;97350.75;5047302;28;20051;-75
2021/07/10 10:55:12;;;;;;;2.92;2.72;;;;;;;27.13;42.74;97344.56;5030508;28;20543;-75
2021/07/10 10:57:51;;;;;;;2.80;2.60;;;;;;;27.15;42.56;97344.22;5047956;28;20036;-75
2021/07/10 11:00:24;;;;;;;3.17;2.88;;;;;;;27.16;41.70;97340.41;5047557;28;20057;-74
2021/07/10 11:02:54;;;;;;;2.83;2.63;;;;;;;27.35;40.97;97337.81;5030641;28;20432;-75
2021/07/10 11:05:33;;;;;;;3.05;2.85;;;;;;;27.63;39.81;97332.25;5025758;28;20060;-74
2021/07/10 11:08:23;;;;;;;2.90;2.70;;;;;;;27.39;40.10;97341.31;5047321;28;20040;-75
2021/07/10 11:10:58;;;;;;;3.00;2.80;;;;;;;27.29;39.74;97336.53;5030652;28;20510;-74
2021/07/10 11:13:37;;;;;;;2.70;2.50;;;;;;;26.93;40.24;97327.72;5047804;28;20044;-74
2021/07/10 11:16:04;;;;;;;2.88;2.60;;;;;;;26.62;41.27;97315.16;5031541;28;20033;-74
2021/07/10 11:18:50;;;;;;;3.10;2.90;;;;;;;26.51;40.31;97318.34;5026321;28;20055;-74
2021/07/10 11:21:44;;;;;;;3.08;2.80;;;;;;;26.30;43.04;97323.16;5044442;28;20028;-74
2021/07/10 11:24:22;;;;;;;3.03;2.70;;;;;;;26.46;40.53;97315.16;5049030;28;20092;-74
2021/07/10 11:26:54;;;;;;;2.92;2.67;;;;;;;26.39;40.47;97309.66;5034420;28;20726;-74
2021/07/10 11:29:26;;;;;;;3.20;2.50;;;;;;;26.34;39.52;97308.03;5033306;28;20094;-75
2021/07/10 11:31:54;;;;;;;2.88;2.67;;;;;;;25.90;42.20;97305.38;5015731;28;20025;-74
2021/07/10 11:34:33;;;;;;;3.65;3.45;;;;;;;25.86;45.56;97299.94;5034260;28;20033;-74